sensor_id;sensor_type;location;lat;lon;timestamp;P1;durP1;ratioP1;P2;durP2;ratioP2
80936;SDS011;70395;51.382;7.074;2023-12-04T00:01:29;19.87;;;13.10;;
80936;SDS011;70395;51.382;7.074;2023-12-04T00:03:54;16.23;;;12.17;;
80936;SDS011;70395;51.382;7.074;2023-12-04T00:06:20;16.00;;;10.37;;
80936;SDS011;70395;51.382;7.074;2023-12-04T00:08:47;17.45;;;11.38;;
80936;SDS011;70395;51.382;7.074;2023-12-04T00:11:13;15.90;;;11.53;;
80936;SDS011;70395;51.382;7.074;2023-12-04T00:13:39;19.73;;;13.00;;
80936;SDS011;70395;51.382;7.074;2023-12-04T00:16:05;16.20;;;11.67;;
80936;SDS011;70395;51.382;7.074;2023-12-04T00:18:31;16.45;;;11.57;;
80936;SDS011;70395;51.382;7.074;2023-12-04T00:20:57;18.13;;;12.00;;
80936;SDS011;70395;51.382;7.074;2023-12-04T00:23:23;19.13;;;11.77;;
80936;SDS011;70395;51.382;7.074;2023-12-04T00:25:49;14.77;;;10.73;;
80936;SDS011;70395;51.382;7.074;2023-12-04T00:28:15;18.13;;;11.80;;
80936;SDS011;70395;51.382;7.074;2023-12-04T00:30:41;17.53;;;11.23;;
80936;SDS011;70395;51.382;7.074;2023-12-04T00:33:07;18.73;;;11.73;;
80936;SDS011;70395;51.382;7.074;2023-12-04T00:35:32;16.07;;;11.73;;
80936;SDS011;70395;51.382;7.074;2023-12-04T00:37:58;17.63;;;11.83;;
80936;SDS011;70395;51.382;7.074;2023-12-04T00:40:24;17.37;;;11.90;;
80936;SDS011;70395;51.382;7.074;2023-12-04T00:42:50;16.30;;;11.57;;
80936;SDS011;70395;51.382;7.074;2023-12-04T00:45:16;17.50;;;11.50;;
80936;SDS011;70395;51.382;7.074;2023-12-04T00:47:41;15.50;;;10.90;;
80936;SDS011;70395;51.382;7.074;2023-12-04T00:50:07;17.77;;;11.70;;
80936;SDS011;70395;51.382;7.074;2023-12-04T00:52:33;16.20;;;9.73;;
80936;SDS011;70395;51.382;7.074;2023-12-04T00:54:59;15.80;;;10.20;;
80936;SDS011;70395;51.382;7.074;2023-12-04T00:57:25;14.03;;;10.27;;
80936;SDS011;70395;51.382;7.074;2023-12-04T00:59:51;15.37;;;10.40;;
80936;SDS011;70395;51.382;7.074;2023-12-04T01:02:16;14.33;;;11.13;;
80936;SDS011;70395;51.382;7.074;2023-12-04T01:04:42;13.07;;;10.30;;
80936;SDS011;70395;51.382;7.074;2023-12-04T01:07:08;15.10;;;10.43;;
80936;SDS011;70395;51.382;7.074;2023-12-04T01:09:34;16.30;;;11.90;;
80936;SDS011;70395;51.382;7.074;2023-12-04T01:12:01;12.30;;;8.27;;
80936;SDS011;70395;51.382;7.074;2023-12-04T01:14:28;13.18;;;8.90;;
80936;SDS011;70395;51.382;7.074;2023-12-04T01:16:53;12.40;;;9.32;;
80936;SDS011;70395;51.382;7.074;2023-12-04T01:19:19;13.70;;;9.80;;
80936;SDS011;70395;51.382;7.074;2023-12-04T01:21:45;14.73;;;9.33;;
80936;SDS011;70395;51.382;7.074;2023-12-04T01:24:11;12.63;;;9.60;;
80936;SDS011;70395;51.382;7.074;2023-12-04T01:26:38;16.73;;;9.80;;
80936;SDS011;70395;51.382;7.074;2023-12-04T01:29:04;14.27;;;9.77;;
80936;SDS011;70395;51.382;7.074;2023-12-04T01:31:29;14.37;;;9.67;;
80936;SDS011;70395;51.382;7.074;2023-12-04T01:33:55;14.83;;;9.40;;
80936;SDS011;70395;51.382;7.074;2023-12-04T01:36:21;12.93;;;9.57;;
80936;SDS011;70395;51.382;7.074;2023-12-04T01:38:47;13.53;;;9.33;;
80936;SDS011;70395;51.382;7.074;2023-12-04T01:41:13;14.27;;;9.80;;
80936;SDS011;70395;51.382;7.074;2023-12-04T01:43:38;11.57;;;8.90;;
80936;SDS011;70395;51.382;7.074;2023-12-04T01:46:04;12.00;;;9.60;;
80936;SDS011;70395;51.382;7.074;2023-12-04T01:48:31;12.07;;;9.27;;
80936;SDS011;70395;51.382;7.074;2023-12-04T01:50:58;12.98;;;9.82;;
80936;SDS011;70395;51.382;7.074;2023-12-04T01:53:31;11.85;;;8.52;;
80936;SDS011;70395;51.382;7.074;2023-12-04T01:56:00;12.45;;;8.45;;
80936;SDS011;70395;51.382;7.074;2023-12-04T01:58:26;10.20;;;7.90;;
80936;SDS011;70395;51.382;7.074;2023-12-04T02:00:51;13.50;;;8.70;;
80936;SDS011;70395;51.382;7.074;2023-12-04T02:03:17;13.90;;;9.57;;
80936;SDS011;70395;51.382;7.074;2023-12-04T02:05:44;11.55;;;9.05;;
80936;SDS011;70395;51.382;7.074;2023-12-04T02:08:11;11.65;;;8.63;;
80936;SDS011;70395;51.382;7.074;2023-12-04T02:10:36;14.67;;;9.70;;
80936;SDS011;70395;51.382;7.074;2023-12-04T02:13:04;11.20;;;8.40;;
80936;SDS011;70395;51.382;7.074;2023-12-04T02:15:29;13.23;;;9.70;;
80936;SDS011;70395;51.382;7.074;2023-12-04T02:17:55;14.13;;;9.17;;
80936;SDS011;70395;51.382;7.074;2023-12-04T02:20:30;11.55;;;9.25;;
80936;SDS011;70395;51.382;7.074;2023-12-04T02:23:00;14.82;;;9.15;;
80936;SDS011;70395;51.382;7.074;2023-12-04T02:25:27;11.52;;;8.38;;
80936;SDS011;70395;51.382;7.074;2023-12-04T02:27:55;13.73;;;8.02;;
80936;SDS011;70395;51.382;7.074;2023-12-04T02:30:26;12.23;;;8.60;;
80936;SDS011;70395;51.382;7.074;2023-12-04T02:32:56;14.15;;;9.32;;
80936;SDS011;70395;51.382;7.074;2023-12-04T02:35:24;11.05;;;7.78;;
80936;SDS011;70395;51.382;7.074;2023-12-04T02:37:56;9.65;;;7.30;;
80936;SDS011;70395;51.382;7.074;2023-12-04T02:40:23;10.95;;;8.13;;
80936;SDS011;70395;51.382;7.074;2023-12-04T02:42:51;12.20;;;9.02;;
80936;SDS011;70395;51.382;7.074;2023-12-04T02:45:17;10.83;;;8.40;;
80936;SDS011;70395;51.382;7.074;2023-12-04T02:47:42;10.57;;;8.00;;
80936;SDS011;70395;51.382;7.074;2023-12-04T02:50:08;11.20;;;7.93;;
80936;SDS011;70395;51.382;7.074;2023-12-04T02:52:34;10.43;;;7.13;;
80936;SDS011;70395;51.382;7.074;2023-12-04T02:55:00;9.30;;;6.17;;
80936;SDS011;70395;51.382;7.074;2023-12-04T02:57:26;11.53;;;8.93;;
80936;SDS011;70395;51.382;7.074;2023-12-04T02:59:52;13.13;;;7.47;;
80936;SDS011;70395;51.382;7.074;2023-12-04T03:02:18;8.70;;;6.57;;
80936;SDS011;70395;51.382;7.074;2023-12-04T03:04:44;10.57;;;8.00;;
80936;SDS011;70395;51.382;7.074;2023-12-04T03:07:10;9.90;;;7.15;;
80936;SDS011;70395;51.382;7.074;2023-12-04T03:09:36;8.93;;;7.40;;
80936;SDS011;70395;51.382;7.074;2023-12-04T03:12:02;9.35;;;6.60;;
80936;SDS011;70395;51.382;7.074;2023-12-04T03:14:29;11.13;;;7.40;;
80936;SDS011;70395;51.382;7.074;2023-12-04T03:16:55;12.80;;;7.27;;
80936;SDS011;70395;51.382;7.074;2023-12-04T03:19:20;11.73;;;7.70;;
80936;SDS011;70395;51.382;7.074;2023-12-04T03:21:46;10.80;;;7.30;;
80936;SDS011;70395;51.382;7.074;2023-12-04T03:24:12;8.63;;;6.70;;
80936;SDS011;70395;51.382;7.074;2023-12-04T03:26:38;9.63;;;7.67;;
80936;SDS011;70395;51.382;7.074;2023-12-04T03:29:04;9.45;;;6.82;;
80936;SDS011;70395;51.382;7.074;2023-12-04T03:31:30;8.90;;;6.57;;
80936;SDS011;70395;51.382;7.074;2023-12-04T03:33:56;10.27;;;7.70;;
80936;SDS011;70395;51.382;7.074;2023-12-04T03:36:22;9.30;;;7.10;;
80936;SDS011;70395;51.382;7.074;2023-12-04T03:38:48;9.47;;;6.03;;
80936;SDS011;70395;51.382;7.074;2023-12-04T03:41:14;9.40;;;6.60;;
80936;SDS011;70395;51.382;7.074;2023-12-04T03:43:41;8.68;;;6.30;;
80936;SDS011;70395;51.382;7.074;2023-12-04T03:46:07;8.95;;;7.10;;
80936;SDS011;70395;51.382;7.074;2023-12-04T03:48:33;10.53;;;7.20;;
80936;SDS011;70395;51.382;7.074;2023-12-04T03:50:59;8.93;;;5.93;;
80936;SDS011;70395;51.382;7.074;2023-12-04T03:53:25;8.55;;;5.85;;
80936;SDS011;70395;51.382;7.074;2023-12-04T03:55:52;8.73;;;6.72;;
80936;SDS011;70395;51.382;7.074;2023-12-04T03:58:18;10.07;;;6.53;;
80936;SDS011;70395;51.382;7.074;2023-12-04T04:00:44;9.20;;;6.33;;
80936;SDS011;70395;51.382;7.074;2023-12-04T04:03:09;8.77;;;6.40;;
80936;SDS011;70395;51.382;7.074;2023-12-04T04:05:35;7.38;;;6.35;;
80936;SDS011;70395;51.382;7.074;2023-12-04T04:08:02;10.83;;;6.33;;
80936;SDS011;70395;51.382;7.074;2023-12-04T04:10:28;7.40;;;5.72;;
80936;SDS011;70395;51.382;7.074;2023-12-04T04:12:54;7.32;;;6.35;;
80936;SDS011;70395;51.382;7.074;2023-12-04T04:15:19;8.23;;;5.87;;
80936;SDS011;70395;51.382;7.074;2023-12-04T04:17:45;7.57;;;5.67;;
80936;SDS011;70395;51.382;7.074;2023-12-04T04:20:11;7.43;;;5.70;;
80936;SDS011;70395;51.382;7.074;2023-12-04T04:22:37;9.60;;;6.75;;
80936;SDS011;70395;51.382;7.074;2023-12-04T04:25:06;7.53;;;5.60;;
80936;SDS011;70395;51.382;7.074;2023-12-04T04:27:32;8.50;;;6.65;;
80936;SDS011;70395;51.382;7.074;2023-12-04T04:29:59;10.82;;;6.80;;
80936;SDS011;70395;51.382;7.074;2023-12-04T04:32:25;7.05;;;5.50;;
80936;SDS011;70395;51.382;7.074;2023-12-04T04:34:51;9.20;;;5.85;;
80936;SDS011;70395;51.382;7.074;2023-12-04T04:37:17;7.73;;;5.83;;
80936;SDS011;70395;51.382;7.074;2023-12-04T04:39:43;7.50;;;5.45;;
80936;SDS011;70395;51.382;7.074;2023-12-04T04:42:09;6.60;;;5.30;;
80936;SDS011;70395;51.382;7.074;2023-12-04T04:44:35;9.93;;;5.60;;
80936;SDS011;70395;51.382;7.074;2023-12-04T04:47:01;7.70;;;6.63;;
80936;SDS011;70395;51.382;7.074;2023-12-04T04:49:27;6.13;;;5.32;;
80936;SDS011;70395;51.382;7.074;2023-12-04T04:51:53;7.90;;;5.47;;
80936;SDS011;70395;51.382;7.074;2023-12-04T04:54:19;8.32;;;5.25;;
80936;SDS011;70395;51.382;7.074;2023-12-04T04:56:45;8.50;;;5.77;;
80936;SDS011;70395;51.382;7.074;2023-12-04T04:59:11;6.57;;;5.00;;
80936;SDS011;70395;51.382;7.074;2023-12-04T05:01:36;9.77;;;6.13;;
80936;SDS011;70395;51.382;7.074;2023-12-04T05:04:02;8.07;;;5.77;;
80936;SDS011;70395;51.382;7.074;2023-12-04T05:06:28;7.23;;;5.30;;
80936;SDS011;70395;51.382;7.074;2023-12-04T05:08:55;8.05;;;5.78;;
80936;SDS011;70395;51.382;7.074;2023-12-04T05:11:21;6.47;;;5.32;;
80936;SDS011;70395;51.382;7.074;2023-12-04T05:13:48;11.40;;;5.40;;
80936;SDS011;70395;51.382;7.074;2023-12-04T05:16:13;10.40;;;6.20;;
80936;SDS011;70395;51.382;7.074;2023-12-04T05:18:39;8.20;;;6.00;;
80936;SDS011;70395;51.382;7.074;2023-12-04T05:21:08;9.77;;;6.50;;
80936;SDS011;70395;51.382;7.074;2023-12-04T05:23:35;8.80;;;6.45;;
80936;SDS011;70395;51.382;7.074;2023-12-04T05:26:02;8.77;;;6.85;;
80936;SDS011;70395;51.382;7.074;2023-12-04T05:28:29;8.65;;;6.47;;
80936;SDS011;70395;51.382;7.074;2023-12-04T05:30:55;9.77;;;6.77;;
80936;SDS011;70395;51.382;7.074;2023-12-04T05:33:21;10.07;;;6.40;;
80936;SDS011;70395;51.382;7.074;2023-12-04T05:35:48;9.35;;;7.68;;
80936;SDS011;70395;51.382;7.074;2023-12-04T05:38:16;7.28;;;5.90;;
80936;SDS011;70395;51.382;7.074;2023-12-04T05:40:42;9.27;;;6.57;;
80936;SDS011;70395;51.382;7.074;2023-12-04T05:43:08;10.38;;;6.85;;
80936;SDS011;70395;51.382;7.074;2023-12-04T05:45:34;11.30;;;7.10;;
80936;SDS011;70395;51.382;7.074;2023-12-04T05:47:59;9.17;;;6.83;;
80936;SDS011;70395;51.382;7.074;2023-12-04T05:50:25;9.60;;;7.30;;
80936;SDS011;70395;51.382;7.074;2023-12-04T05:52:51;10.70;;;8.50;;
80936;SDS011;70395;51.382;7.074;2023-12-04T05:55:17;12.52;;;7.97;;
80936;SDS011;70395;51.382;7.074;2023-12-04T05:57:43;11.70;;;8.20;;
80936;SDS011;70395;51.382;7.074;2023-12-04T06:00:09;10.35;;;7.70;;
80936;SDS011;70395;51.382;7.074;2023-12-04T06:02:46;10.27;;;7.38;;
80936;SDS011;70395;51.382;7.074;2023-12-04T06:05:12;10.23;;;6.63;;
80936;SDS011;70395;51.382;7.074;2023-12-04T06:07:38;8.33;;;6.67;;
80936;SDS011;70395;51.382;7.074;2023-12-04T06:10:04;11.83;;;8.30;;
80936;SDS011;70395;51.382;7.074;2023-12-04T06:12:31;8.90;;;7.20;;
80936;SDS011;70395;51.382;7.074;2023-12-04T06:14:58;10.82;;;7.25;;
80936;SDS011;70395;51.382;7.074;2023-12-04T06:17:24;11.57;;;8.17;;
80936;SDS011;70395;51.382;7.074;2023-12-04T06:19:51;11.35;;;7.70;;
80936;SDS011;70395;51.382;7.074;2023-12-04T06:22:17;8.33;;;6.03;;
80936;SDS011;70395;51.382;7.074;2023-12-04T06:24:45;9.35;;;6.43;;
80936;SDS011;70395;51.382;7.074;2023-12-04T06:27:12;11.88;;;8.05;;
80936;SDS011;70395;51.382;7.074;2023-12-04T06:29:43;14.15;;;8.60;;
80936;SDS011;70395;51.382;7.074;2023-12-04T06:32:10;11.30;;;6.63;;
80936;SDS011;70395;51.382;7.074;2023-12-04T06:34:37;11.25;;;8.38;;
80936;SDS011;70395;51.382;7.074;2023-12-04T06:37:03;11.30;;;8.10;;
80936;SDS011;70395;51.382;7.074;2023-12-04T06:39:38;7.55;;;6.18;;
80936;SDS011;70395;51.382;7.074;2023-12-04T06:42:06;10.02;;;7.57;;
80936;SDS011;70395;51.382;7.074;2023-12-04T06:44:33;8.57;;;6.85;;
80936;SDS011;70395;51.382;7.074;2023-12-04T06:46:59;11.52;;;7.28;;
80936;SDS011;70395;51.382;7.074;2023-12-04T06:49:30;10.20;;;7.25;;
80936;SDS011;70395;51.382;7.074;2023-12-04T06:51:58;9.30;;;7.40;;
80936;SDS011;70395;51.382;7.074;2023-12-04T06:54:25;9.82;;;7.13;;
80936;SDS011;70395;51.382;7.074;2023-12-04T06:56:52;9.32;;;6.65;;
80936;SDS011;70395;51.382;7.074;2023-12-04T06:59:18;10.57;;;7.30;;
80936;SDS011;70395;51.382;7.074;2023-12-04T07:01:44;11.52;;;8.05;;
80936;SDS011;70395;51.382;7.074;2023-12-04T07:04:11;9.50;;;6.60;;
80936;SDS011;70395;51.382;7.074;2023-12-04T07:06:37;8.73;;;6.53;;
80936;SDS011;70395;51.382;7.074;2023-12-04T07:09:06;9.35;;;7.25;;
80936;SDS011;70395;51.382;7.074;2023-12-04T07:11:33;8.80;;;7.15;;
80936;SDS011;70395;51.382;7.074;2023-12-04T07:13:59;10.50;;;7.60;;
80936;SDS011;70395;51.382;7.074;2023-12-04T07:16:25;10.27;;;6.67;;
80936;SDS011;70395;51.382;7.074;2023-12-04T07:18:51;8.90;;;6.67;;
80936;SDS011;70395;51.382;7.074;2023-12-04T07:21:17;6.90;;;6.20;;
80936;SDS011;70395;51.382;7.074;2023-12-04T07:23:43;9.80;;;6.90;;
80936;SDS011;70395;51.382;7.074;2023-12-04T07:26:08;9.07;;;6.40;;
80936;SDS011;70395;51.382;7.074;2023-12-04T07:28:34;8.97;;;5.97;;
80936;SDS011;70395;51.382;7.074;2023-12-04T07:31:00;8.43;;;6.20;;
80936;SDS011;70395;51.382;7.074;2023-12-04T07:33:29;7.93;;;5.47;;
80936;SDS011;70395;51.382;7.074;2023-12-04T07:35:55;5.83;;;4.80;;
80936;SDS011;70395;51.382;7.074;2023-12-04T07:38:21;10.18;;;6.28;;
80936;SDS011;70395;51.382;7.074;2023-12-04T07:40:46;6.93;;;4.60;;
80936;SDS011;70395;51.382;7.074;2023-12-04T07:43:12;6.17;;;4.53;;
80936;SDS011;70395;51.382;7.074;2023-12-04T07:45:39;8.50;;;6.55;;
80936;SDS011;70395;51.382;7.074;2023-12-04T07:48:06;11.20;;;5.47;;
80936;SDS011;70395;51.382;7.074;2023-12-04T07:50:32;8.70;;;6.10;;
80936;SDS011;70395;51.382;7.074;2023-12-04T07:52:59;8.37;;;5.30;;
80936;SDS011;70395;51.382;7.074;2023-12-04T07:55:25;4.82;;;3.22;;
80936;SDS011;70395;51.382;7.074;2023-12-04T07:57:51;7.22;;;5.95;;
80936;SDS011;70395;51.382;7.074;2023-12-04T08:00:17;7.83;;;5.50;;
80936;SDS011;70395;51.382;7.074;2023-12-04T08:02:43;9.30;;;5.85;;
80936;SDS011;70395;51.382;7.074;2023-12-04T08:05:11;9.38;;;5.50;;
80936;SDS011;70395;51.382;7.074;2023-12-04T08:07:37;5.93;;;5.07;;
80936;SDS011;70395;51.382;7.074;2023-12-04T08:10:04;8.25;;;6.22;;
80936;SDS011;70395;51.382;7.074;2023-12-04T08:12:31;6.10;;;4.80;;
80936;SDS011;70395;51.382;7.074;2023-12-04T08:14:58;7.57;;;5.85;;
80936;SDS011;70395;51.382;7.074;2023-12-04T08:17:24;8.27;;;5.67;;
80936;SDS011;70395;51.382;7.074;2023-12-04T08:19:50;8.07;;;4.45;;
80936;SDS011;70395;51.382;7.074;2023-12-04T08:22:16;7.30;;;5.67;;
80936;SDS011;70395;51.382;7.074;2023-12-04T08:24:42;9.60;;;6.05;;
80936;SDS011;70395;51.382;7.074;2023-12-04T08:27:08;6.23;;;4.60;;
80936;SDS011;70395;51.382;7.074;2023-12-04T08:29:34;7.60;;;5.57;;
80936;SDS011;70395;51.382;7.074;2023-12-04T08:32:00;5.43;;;4.60;;
80936;SDS011;70395;51.382;7.074;2023-12-04T08:34:26;6.57;;;5.10;;
80936;SDS011;70395;51.382;7.074;2023-12-04T08:36:52;12.57;;;6.40;;
80936;SDS011;70395;51.382;7.074;2023-12-04T08:39:18;7.60;;;5.80;;
80936;SDS011;70395;51.382;7.074;2023-12-04T08:41:45;5.93;;;5.10;;
80936;SDS011;70395;51.382;7.074;2023-12-04T08:44:12;7.68;;;5.82;;
80936;SDS011;70395;51.382;7.074;2023-12-04T08:46:38;6.53;;;5.20;;
80936;SDS011;70395;51.382;7.074;2023-12-04T08:49:05;7.78;;;4.95;;
80936;SDS011;70395;51.382;7.074;2023-12-04T08:51:31;7.57;;;5.20;;
80936;SDS011;70395;51.382;7.074;2023-12-04T08:53:56;6.20;;;5.20;;
80936;SDS011;70395;51.382;7.074;2023-12-04T08:56:22;6.57;;;5.20;;
80936;SDS011;70395;51.382;7.074;2023-12-04T08:58:48;7.40;;;5.60;;
80936;SDS011;70395;51.382;7.074;2023-12-04T09:01:17;7.88;;;6.10;;
80936;SDS011;70395;51.382;7.074;2023-12-04T09:03:43;6.03;;;5.20;;
80936;SDS011;70395;51.382;7.074;2023-12-04T09:06:09;6.68;;;5.15;;
80936;SDS011;70395;51.382;7.074;2023-12-04T09:08:35;6.57;;;5.50;;
80936;SDS011;70395;51.382;7.074;2023-12-04T09:11:01;6.67;;;5.17;;
80936;SDS011;70395;51.382;7.074;2023-12-04T09:13:28;7.28;;;5.65;;
80936;SDS011;70395;51.382;7.074;2023-12-04T09:15:55;6.68;;;4.70;;
80936;SDS011;70395;51.382;7.074;2023-12-04T09:18:21;7.57;;;4.80;;
80936;SDS011;70395;51.382;7.074;2023-12-04T09:20:47;5.87;;;4.47;;
80936;SDS011;70395;51.382;7.074;2023-12-04T09:23:13;7.10;;;5.07;;
80936;SDS011;70395;51.382;7.074;2023-12-04T09:25:38;6.03;;;4.90;;
80936;SDS011;70395;51.382;7.074;2023-12-04T09:28:04;7.20;;;4.80;;
80936;SDS011;70395;51.382;7.074;2023-12-04T09:30:31;6.87;;;4.87;;
80936;SDS011;70395;51.382;7.074;2023-12-04T09:32:59;5.60;;;4.32;;
80936;SDS011;70395;51.382;7.074;2023-12-04T09:35:24;8.23;;;5.43;;
80936;SDS011;70395;51.382;7.074;2023-12-04T09:37:50;5.77;;;4.73;;
80936;SDS011;70395;51.382;7.074;2023-12-04T09:40:16;5.97;;;4.70;;
80936;SDS011;70395;51.382;7.074;2023-12-04T09:42:43;4.65;;;3.90;;
80936;SDS011;70395;51.382;7.074;2023-12-04T09:45:08;8.37;;;5.40;;
80936;SDS011;70395;51.382;7.074;2023-12-04T09:47:35;7.57;;;5.25;;
80936;SDS011;70395;51.382;7.074;2023-12-04T09:50:01;6.13;;;4.67;;
80936;SDS011;70395;51.382;7.074;2023-12-04T09:52:29;6.68;;;5.30;;
80936;SDS011;70395;51.382;7.074;2023-12-04T09:54:56;7.22;;;4.68;;
80936;SDS011;70395;51.382;7.074;2023-12-04T09:57:23;9.60;;;4.50;;
80936;SDS011;70395;51.382;7.074;2023-12-04T09:59:49;7.20;;;4.85;;
80936;SDS011;70395;51.382;7.074;2023-12-04T10:02:18;7.20;;;4.90;;
80936;SDS011;70395;51.382;7.074;2023-12-04T10:04:46;5.90;;;5.30;;
80936;SDS011;70395;51.382;7.074;2023-12-04T10:07:12;5.85;;;4.18;;
80936;SDS011;70395;51.382;7.074;2023-12-04T10:09:38;8.10;;;5.07;;
80936;SDS011;70395;51.382;7.074;2023-12-04T10:12:05;7.07;;;5.40;;
80936;SDS011;70395;51.382;7.074;2023-12-04T10:14:31;5.97;;;4.40;;
80936;SDS011;70395;51.382;7.074;2023-12-04T10:16:57;7.00;;;4.90;;
80936;SDS011;70395;51.382;7.074;2023-12-04T10:19:28;6.72;;;5.32;;
80936;SDS011;70395;51.382;7.074;2023-12-04T10:21:56;6.82;;;5.25;;
80936;SDS011;70395;51.382;7.074;2023-12-04T10:24:34;7.80;;;4.57;;
80936;SDS011;70395;51.382;7.074;2023-12-04T10:27:02;8.27;;;6.05;;
80936;SDS011;70395;51.382;7.074;2023-12-04T10:29:39;7.05;;;5.60;;
80936;SDS011;70395;51.382;7.074;2023-12-04T10:32:12;8.50;;;5.97;;
80936;SDS011;70395;51.382;7.074;2023-12-04T10:34:40;6.40;;;5.05;;
80936;SDS011;70395;51.382;7.074;2023-12-04T10:37:07;8.02;;;5.70;;
80936;SDS011;70395;51.382;7.074;2023-12-04T10:39:45;7.53;;;6.03;;
80936;SDS011;70395;51.382;7.074;2023-12-04T10:42:15;9.80;;;5.90;;
80936;SDS011;70395;51.382;7.074;2023-12-04T10:44:56;8.43;;;5.70;;
80936;SDS011;70395;51.382;7.074;2023-12-04T10:47:23;9.23;;;6.22;;
80936;SDS011;70395;51.382;7.074;2023-12-04T10:49:49;8.60;;;5.75;;
80936;SDS011;70395;51.382;7.074;2023-12-04T10:52:16;7.57;;;6.10;;
80936;SDS011;70395;51.382;7.074;2023-12-04T10:54:46;6.70;;;5.78;;
80936;SDS011;70395;51.382;7.074;2023-12-04T10:57:13;7.68;;;5.93;;
80936;SDS011;70395;51.382;7.074;2023-12-04T10:59:55;9.10;;;5.65;;
80936;SDS011;70395;51.382;7.074;2023-12-04T11:02:27;9.35;;;5.55;;
80936;SDS011;70395;51.382;7.074;2023-12-04T11:05:01;10.90;;;6.70;;
80936;SDS011;70395;51.382;7.074;2023-12-04T11:07:40;12.27;;;6.65;;
80936;SDS011;70395;51.382;7.074;2023-12-04T11:10:13;9.05;;;6.63;;
80936;SDS011;70395;51.382;7.074;2023-12-04T11:12:43;10.60;;;8.40;;
80936;SDS011;70395;51.382;7.074;2023-12-04T11:15:14;9.63;;;6.25;;
80936;SDS011;70395;51.382;7.074;2023-12-04T11:17:45;7.63;;;6.78;;
80936;SDS011;70395;51.382;7.074;2023-12-04T11:20:21;11.53;;;6.57;;
80936;SDS011;70395;51.382;7.074;2023-12-04T11:22:52;9.52;;;7.05;;
80936;SDS011;70395;51.382;7.074;2023-12-04T11:25:21;8.80;;;7.07;;
80936;SDS011;70395;51.382;7.074;2023-12-04T11:27:50;8.48;;;7.05;;
80936;SDS011;70395;51.382;7.074;2023-12-04T11:30:20;9.68;;;6.38;;
80936;SDS011;70395;51.382;7.074;2023-12-04T11:32:50;9.57;;;7.28;;
80936;SDS011;70395;51.382;7.074;2023-12-04T11:35:17;9.38;;;7.03;;
80936;SDS011;70395;51.382;7.074;2023-12-04T11:37:44;10.27;;;7.30;;
80936;SDS011;70395;51.382;7.074;2023-12-04T11:40:12;8.32;;;5.95;;
80936;SDS011;70395;51.382;7.074;2023-12-04T11:42:40;11.18;;;7.93;;
80936;SDS011;70395;51.382;7.074;2023-12-04T11:45:07;9.30;;;7.43;;
80936;SDS011;70395;51.382;7.074;2023-12-04T11:47:50;8.50;;;7.07;;
80936;SDS011;70395;51.382;7.074;2023-12-04T11:50:26;9.65;;;8.00;;
80936;SDS011;70395;51.382;7.074;2023-12-04T11:52:52;11.85;;;6.55;;
80936;SDS011;70395;51.382;7.074;2023-12-04T11:55:23;10.68;;;7.90;;
80936;SDS011;70395;51.382;7.074;2023-12-04T11:57:51;10.65;;;7.18;;
80936;SDS011;70395;51.382;7.074;2023-12-04T12:00:20;7.53;;;6.45;;
80936;SDS011;70395;51.382;7.074;2023-12-04T12:05:19;10.55;;;7.10;;
80936;SDS011;70395;51.382;7.074;2023-12-04T12:07:46;9.25;;;6.60;;
80936;SDS011;70395;51.382;7.074;2023-12-04T12:10:13;9.07;;;7.55;;
80936;SDS011;70395;51.382;7.074;2023-12-04T12:12:39;9.32;;;7.57;;
80936;SDS011;70395;51.382;7.074;2023-12-04T12:15:08;9.55;;;6.90;;
80936;SDS011;70395;51.382;7.074;2023-12-04T12:17:39;10.32;;;7.20;;
80936;SDS011;70395;51.382;7.074;2023-12-04T12:20:10;8.77;;;6.80;;
80936;SDS011;70395;51.382;7.074;2023-12-04T12:22:40;10.00;;;7.28;;
80936;SDS011;70395;51.382;7.074;2023-12-04T12:25:09;8.30;;;6.35;;
80936;SDS011;70395;51.382;7.074;2023-12-04T12:27:36;10.60;;;8.52;;
80936;SDS011;70395;51.382;7.074;2023-12-04T12:30:03;12.98;;;8.48;;
80936;SDS011;70395;51.382;7.074;2023-12-04T12:32:31;9.45;;;7.10;;
80936;SDS011;70395;51.382;7.074;2023-12-04T12:35:01;9.25;;;7.00;;
80936;SDS011;70395;51.382;7.074;2023-12-04T12:37:28;10.30;;;7.80;;
80936;SDS011;70395;51.382;7.074;2023-12-04T12:39:54;9.52;;;7.32;;
80936;SDS011;70395;51.382;7.074;2023-12-04T12:42:26;8.75;;;6.80;;
80936;SDS011;70395;51.382;7.074;2023-12-04T12:44:54;11.20;;;8.43;;
80936;SDS011;70395;51.382;7.074;2023-12-04T12:47:21;12.73;;;9.15;;
80936;SDS011;70395;51.382;7.074;2023-12-04T12:49:48;10.63;;;7.22;;
80936;SDS011;70395;51.382;7.074;2023-12-04T12:52:14;12.20;;;7.93;;
80936;SDS011;70395;51.382;7.074;2023-12-04T12:54:41;12.57;;;8.18;;
80936;SDS011;70395;51.382;7.074;2023-12-04T12:57:09;9.38;;;7.50;;
80936;SDS011;70395;51.382;7.074;2023-12-04T12:59:37;9.45;;;6.43;;
80936;SDS011;70395;51.382;7.074;2023-12-04T13:02:06;10.80;;;7.30;;
80936;SDS011;70395;51.382;7.074;2023-12-04T13:04:42;10.40;;;8.18;;
80936;SDS011;70395;51.382;7.074;2023-12-04T13:07:09;9.55;;;6.65;;
80936;SDS011;70395;51.382;7.074;2023-12-04T13:09:36;10.15;;;7.07;;
80936;SDS011;70395;51.382;7.074;2023-12-04T13:12:03;11.98;;;8.48;;
80936;SDS011;70395;51.382;7.074;2023-12-04T13:14:31;8.75;;;7.53;;
80936;SDS011;70395;51.382;7.074;2023-12-04T13:16:59;10.20;;;6.88;;
80936;SDS011;70395;51.382;7.074;2023-12-04T13:19:26;8.50;;;6.55;;
80936;SDS011;70395;51.382;7.074;2023-12-04T13:21:52;9.60;;;7.67;;
80936;SDS011;70395;51.382;7.074;2023-12-04T13:24:18;10.60;;;7.33;;
80936;SDS011;70395;51.382;7.074;2023-12-04T13:26:44;7.73;;;5.87;;
80936;SDS011;70395;51.382;7.074;2023-12-04T13:29:11;8.93;;;6.10;;
80936;SDS011;70395;51.382;7.074;2023-12-04T13:31:41;8.88;;;6.20;;
80936;SDS011;70395;51.382;7.074;2023-12-04T13:34:07;10.88;;;7.63;;
80936;SDS011;70395;51.382;7.074;2023-12-04T13:36:36;8.37;;;6.80;;
80936;SDS011;70395;51.382;7.074;2023-12-04T13:39:02;8.73;;;6.50;;
80936;SDS011;70395;51.382;7.074;2023-12-04T13:41:41;11.23;;;6.97;;
80936;SDS011;70395;51.382;7.074;2023-12-04T13:44:32;9.27;;;6.43;;
80936;SDS011;70395;51.382;7.074;2023-12-04T13:46:58;8.30;;;6.65;;
80936;SDS011;70395;51.382;7.074;2023-12-04T13:49:24;7.55;;;5.90;;
80936;SDS011;70395;51.382;7.074;2023-12-04T13:51:50;9.25;;;7.00;;
80936;SDS011;70395;51.382;7.074;2023-12-04T13:54:17;12.70;;;6.97;;
80936;SDS011;70395;51.382;7.074;2023-12-04T13:56:51;7.03;;;6.10;;
80936;SDS011;70395;51.382;7.074;2023-12-04T13:59:22;7.80;;;6.20;;
80936;SDS011;70395;51.382;7.074;2023-12-04T14:01:49;8.15;;;6.38;;
80936;SDS011;70395;51.382;7.074;2023-12-04T14:04:16;7.97;;;6.32;;
80936;SDS011;70395;51.382;7.074;2023-12-04T14:06:43;9.45;;;6.53;;
80936;SDS011;70395;51.382;7.074;2023-12-04T14:09:10;9.57;;;6.32;;
80936;SDS011;70395;51.382;7.074;2023-12-04T14:11:39;8.02;;;6.40;;
80936;SDS011;70395;51.382;7.074;2023-12-04T14:14:09;7.60;;;6.00;;
80936;SDS011;70395;51.382;7.074;2023-12-04T14:16:35;7.20;;;5.03;;
80936;SDS011;70395;51.382;7.074;2023-12-04T14:19:00;6.57;;;5.40;;
80936;SDS011;70395;51.382;7.074;2023-12-04T14:21:27;7.90;;;5.97;;
80936;SDS011;70395;51.382;7.074;2023-12-04T14:23:53;6.68;;;5.35;;
80936;SDS011;70395;51.382;7.074;2023-12-04T14:26:19;7.20;;;5.70;;
80936;SDS011;70395;51.382;7.074;2023-12-04T14:28:45;4.93;;;4.37;;
80936;SDS011;70395;51.382;7.074;2023-12-04T14:31:11;5.57;;;4.95;;
80936;SDS011;70395;51.382;7.074;2023-12-04T14:33:37;5.90;;;5.03;;
80936;SDS011;70395;51.382;7.074;2023-12-04T14:36:04;6.38;;;5.28;;
80936;SDS011;70395;51.382;7.074;2023-12-04T14:38:30;7.90;;;5.18;;
80936;SDS011;70395;51.382;7.074;2023-12-04T14:40:56;6.07;;;4.80;;
80936;SDS011;70395;51.382;7.074;2023-12-04T14:43:22;5.43;;;4.57;;